Terminal Aerodrome Forecast
Issued by NWS

Home | Current Version | Previous Version | Text Only | Print | Product List | Glossary On
Versions: 1 2 3 4 5 6 7 8 9 10 11 12 13 14 15 16
000
FTUS46 KLOX 250500
TAFOXR
TAF
KOXR 250525Z 2506/2606 VRB03KT 2SM BR SCT005
     FM250800 VRB03KT 5SM BR OVC007
     FM251700 27007KT P6SM BKN012
     FM252100 26015KT P6SM SCT020
     FM260300 VRB03KT 5SM BR OVC015=

USA.gov is the U.S. government's official web portal to all federal, state and local government web resources and services.